Time;durP1;ratioP1;P1;durP2;ratioP2;P2;SDS_P1;SDS_P2;PMS_P1;PMS_P2;Temp;Humidity;BMP_temperature;BMP_pressure;BME280_temperature;BME280_humidity;BME280_pressure;Samples;Min_cycle;Max_cycle;Signal;HPM_P1;HPM_P2
2023/01/29 00:05:43;;;;;;;10.27;4.97;;;0.80;99.90;;;;;;20908930;28;20557;-77
2023/01/29 00:15:58;;;;;;;16.25;5.95;;;0.80;99.90;;;;;;20941941;28;20028;-78
2023/01/29 00:25:59;;;;;;;10.80;5.25;;;0.90;99.90;;;;;;20946129;28;20036;-77
2023/01/29 00:36:09;;;;;;;11.38;4.85;;;0.90;99.90;;;;;;21024924;28;20029;-78
2023/01/29 00:46:10;;;;;;;10.53;5.03;;;0.90;99.90;;;;;;21004772;28;20035;-78
2023/01/29 00:56:11;;;;;;;9.25;4.35;;;0.80;99.90;;;;;;21059165;28;20081;-78
2023/01/29 01:06:11;;;;;;;8.88;4.47;;;0.80;99.90;;;;;;21013521;28;20028;-78
2023/01/29 01:16:15;;;;;;;10.80;4.78;;;0.80;99.90;;;;;;21024623;28;20096;-77
2023/01/29 01:26:17;;;;;;;10.90;4.68;;;0.80;99.90;;;;;;21013912;28;20090;-77
2023/01/29 01:36:18;;;;;;;10.65;5.25;;;0.80;99.90;;;;;;20994364;28;20029;-77
2023/01/29 01:46:19;;;;;;;9.85;5.20;;;0.80;99.90;;;;;;21007486;28;20039;-78
2023/01/29 01:56:37;;;;;;;10.43;4.70;;;0.80;99.90;;;;;;21030456;28;20025;-78
2023/01/29 02:17:00;;;;;;;9.43;4.25;;;0.80;99.90;;;;;;21042804;28;20031;-77
2023/01/29 02:27:19;;;;;;;8.98;4.30;;;0.90;99.90;;;;;;21077383;28;20042;-77
2023/01/29 02:37:32;;;;;;;8.40;4.20;;;0.90;99.90;;;;;;21012308;28;20570;-78
2023/01/29 02:47:54;;;;;;;9.73;3.50;;;0.90;99.90;;;;;;20981441;28;20115;-78
2023/01/29 02:58:04;;;;;;;11.27;4.47;;;0.90;99.90;;;;;;21029635;28;20036;-78
2023/01/29 03:08:10;;;;;;;8.07;3.60;;;0.90;99.90;;;;;;21019135;28;20031;-77
2023/01/29 03:18:16;;;;;;;8.95;3.55;;;1.00;99.90;;;;;;21046750;28;20031;-77
2023/01/29 03:38:38;;;;;;;9.93;4.38;;;1.00;99.90;;;;;;20985422;28;20517;-77
2023/01/29 03:48:50;;;;;;;12.05;4.50;;;1.00;99.90;;;;;;21032493;28;20123;-77
2023/01/29 03:59:00;;;;;;;10.25;4.38;;;1.00;99.90;;;;;;21035935;28;20181;-78
2023/01/29 04:09:20;;;;;;;10.52;4.57;;;1.00;99.90;;;;;;20977836;28;20105;-78
2023/01/29 04:19:22;;;;;;;10.85;5.30;;;1.00;99.90;;;;;;20982795;28;20031;-77
2023/01/29 04:29:33;;;;;;;10.68;5.18;;;1.00;99.90;;;;;;21017657;28;20025;-77
2023/01/29 04:39:58;;;;;;;11.68;4.88;;;1.00;99.90;;;;;;20981075;28;20028;-77
2023/01/29 04:50:05;;;;;;;11.55;5.10;;;1.00;99.90;;;;;;21017823;28;20035;-77
2023/01/29 05:00:12;;;;;;;11.40;5.47;;;0.90;99.90;;;;;;20988371;28;20055;-78
2023/01/29 05:10:16;;;;;;;10.63;5.05;;;0.90;99.90;;;;;;21031061;28;20598;-77
2023/01/29 05:20:19;;;;;;;10.60;5.03;;;1.00;99.90;;;;;;21016887;28;20071;-78
2023/01/29 05:30:19;;;;;;;15.27;6.35;;;1.00;99.90;;;;;;21046054;28;20123;-77
2023/01/29 05:40:21;;;;;;;13.07;5.78;;;1.00;99.90;;;;;;21095648;28;20086;-78
2023/01/29 05:50:21;;;;;;;13.02;6.05;;;1.00;99.90;;;;;;21097951;28;20082;-77
2023/01/29 06:00:22;;;;;;;14.15;6.63;;;1.00;99.90;;;;;;21036582;28;20033;-78
2023/01/29 06:10:23;;;;;;;14.98;5.72;;;1.00;99.90;;;;;;21026168;28;20118;-76
2023/01/29 06:20:24;;;;;;;10.35;5.68;;;1.00;99.90;;;;;;21010063;28;20032;-77
2023/01/29 06:30:27;;;;;;;13.07;6.13;;;1.00;99.90;;;;;;20998073;28;20035;-78
2023/01/29 06:40:27;;;;;;;15.02;6.93;;;0.90;99.90;;;;;;20996523;28;20043;-77
2023/01/29 06:50:28;;;;;;;16.48;7.32;;;0.90;99.90;;;;;;20996965;28;20024;-76
2023/01/29 07:00:29;;;;;;;16.73;8.40;;;0.90;99.90;;;;;;20996745;28;20020;-77
2023/01/29 07:10:30;;;;;;;11.05;5.32;;;1.00;99.90;;;;;;20995143;28;20460;-77
2023/01/29 07:20:31;;;;;;;12.68;5.60;;;1.20;99.90;;;;;;20976586;28;20037;-76
2023/01/29 07:30:32;;;;;;;14.23;5.70;;;1.10;99.90;;;;;;20989760;28;20029;-77
2023/01/29 07:40:33;;;;;;;14.85;5.43;;;1.20;99.90;;;;;;21014808;28;20518;-76
2023/01/29 07:50:34;;;;;;;13.88;6.07;;;1.10;99.90;;;;;;21076148;28;20101;-78
2023/01/29 08:00:35;;;;;;;15.02;6.50;;;1.20;99.90;;;;;;21049856;28;20562;-78
2023/01/29 08:10:38;;;;;;;10.05;4.82;;;1.20;99.90;;;;;;21049124;28;20028;-80
2023/01/29 08:20:39;;;;;;;13.93;6.13;;;1.90;99.90;;;;;;21026502;28;20036;-79
2023/01/29 08:30:40;;;;;;;12.75;6.50;;;1.50;99.90;;;;;;21008621;28;20453;-78
2023/01/29 08:40:41;;;;;;;11.23;5.30;;;1.50;99.90;;;;;;21016607;28;20452;-77
2023/01/29 08:50:41;;;;;;;11.27;6.03;;;1.40;99.90;;;;;;21001452;28;20043;-78
2023/01/29 09:00:42;;;;;;;30.52;12.93;;;1.40;99.90;;;;;;20990061;28;20464;-78
2023/01/29 09:10:43;;;;;;;22.88;11.32;;;1.60;99.90;;;;;;20983765;28;20029;-77
2023/01/29 09:20:44;;;;;;;10.32;5.40;;;1.40;99.90;;;;;;20991293;28;20035;-77
2023/01/29 09:30:45;;;;;;;12.13;5.72;;;1.60;99.90;;;;;;20992367;28;20055;-75
2023/01/29 09:40:54;;;;;;;11.27;5.50;;;1.70;99.90;;;;;;21016006;28;20493;-77
2023/01/29 09:50:57;;;;;;;13.05;6.68;;;1.70;99.90;;;;;;21002268;28;20111;-77
2023/01/29 10:01:20;;;;;;;10.88;6.13;;;1.90;99.90;;;;;;21011381;28;20044;-78
2023/01/29 10:11:58;;;;;;;14.27;7.22;;;2.00;99.90;;;;;;20999972;28;20028;-78
2023/01/29 10:22:34;;;;;;;11.75;5.25;;;2.20;99.90;;;;;;21001647;28;20031;-77
2023/01/29 10:32:36;;;;;;;16.48;8.02;;;2.20;99.90;;;;;;20987621;28;20056;-75
2023/01/29 10:42:47;;;;;;;26.45;10.85;;;2.30;99.90;;;;;;20997214;28;20052;-75
2023/01/29 10:52:54;;;;;;;19.02;9.75;;;2.50;99.90;;;;;;21005961;28;20115;-76
2023/01/29 11:02:56;;;;;;;14.18;6.90;;;2.50;99.90;;;;;;20984849;28;20441;-76
2023/01/29 11:12:58;;;;;;;14.90;7.60;;;2.70;99.90;;;;;;20982415;28;20063;-78
2023/01/29 11:22:59;;;;;;;16.02;7.35;;;2.70;99.90;;;;;;20989670;28;20048;-78
2023/01/29 11:33:19;;;;;;;17.45;8.30;;;2.80;99.90;;;;;;20976813;28;20025;-78
2023/01/29 11:43:26;;;;;;;14.23;7.70;;;2.70;99.90;;;;;;20953493;28;20134;-77
2023/01/29 11:53:36;;;;;;;13.18;6.47;;;2.90;99.90;;;;;;20984491;28;20063;-78
2023/01/29 12:03:43;;;;;;;25.30;10.48;;;3.10;99.90;;;;;;21003402;28;20090;-77
2023/01/29 12:13:52;;;;;;;61.13;21.15;;;3.20;99.90;;;;;;20990440;28;20094;-77
2023/01/29 12:24:03;;;;;;;14.90;7.82;;;3.20;99.90;;;;;;20996817;28;20044;-78
2023/01/29 12:34:14;;;;;;;11.00;4.97;;;3.00;99.90;;;;;;20950521;28;20082;-77
2023/01/29 12:44:20;;;;;;;13.48;6.22;;;2.90;99.90;;;;;;21002238;28;20032;-76
2023/01/29 12:54:32;;;;;;;23.38;11.32;;;2.80;99.90;;;;;;21056448;28;20033;-79
2023/01/29 13:04:42;;;;;;;56.35;18.50;;;2.90;99.90;;;;;;20996985;28;20029;-77
2023/01/29 13:14:46;;;;;;;18.52;9.60;;;2.90;99.90;;;;;;21014184;28;20042;-78
2023/01/29 13:24:47;;;;;;;20.58;9.40;;;2.70;99.90;;;;;;20998574;28;20044;-76
2023/01/29 13:34:50;;;;;;;24.45;9.93;;;2.80;99.90;;;;;;20999823;28;20032;-77
2023/01/29 13:44:54;;;;;;;18.75;8.55;;;2.90;99.90;;;;;;21016320;28;20502;-77
2023/01/29 13:54:59;;;;;;;15.18;7.75;;;3.20;99.90;;;;;;21052482;28;20032;-77
2023/01/29 14:05:31;;;;;;;12.45;6.88;;;2.90;99.90;;;;;;20989480;28;20052;-78
2023/01/29 14:15:35;;;;;;;14.52;6.97;;;3.00;99.90;;;;;;20999762;28;20426;-76
2023/01/29 14:25:38;;;;;;;14.20;7.07;;;2.70;99.90;;;;;;21006402;28;20036;-77
2023/01/29 14:35:49;;;;;;;12.88;6.55;;;2.50;99.90;;;;;;20993071;28;20036;-77
2023/01/29 14:45:50;;;;;;;13.82;6.65;;;2.70;99.90;;;;;;20971425;28;20032;-77
2023/01/29 14:55:58;;;;;;;18.27;7.68;;;2.70;99.90;;;;;;20993420;28;20108;-76
2023/01/29 15:06:00;;;;;;;13.98;7.18;;;2.50;99.90;;;;;;20990604;28;20185;-77
2023/01/29 15:16:13;;;;;;;16.20;7.38;;;2.50;99.90;;;;;;20978383;28;20059;-77
2023/01/29 15:26:20;;;;;;;15.00;7.18;;;2.50;99.90;;;;;;20981544;28;20411;-76
2023/01/29 15:36:27;;;;;;;12.98;6.00;;;2.30;99.90;;;;;;21004721;28;20031;-77
2023/01/29 15:46:35;;;;;;;14.43;6.55;;;2.20;99.90;;;;;;21046571;28;20035;-77
2023/01/29 15:56:37;;;;;;;13.00;6.82;;;2.20;99.90;;;;;;21023176;28;20028;-77
2023/01/29 16:06:40;;;;;;;17.90;7.57;;;2.00;99.90;;;;;;21004002;28;20024;-77
2023/01/29 16:16:43;;;;;;;15.07;6.38;;;1.80;99.90;;;;;;21030387;28;20035;-77
2023/01/29 16:26:47;;;;;;;12.95;6.93;;;1.70;99.90;;;;;;21038497;28;20032;-78
2023/01/29 16:36:49;;;;;;;13.10;6.90;;;1.60;99.90;;;;;;20964804;28;20033;-78
2023/01/29 16:46:52;;;;;;;12.52;6.13;;;1.60;99.90;;;;;;21025375;28;20020;-78
2023/01/29 16:56:59;;;;;;;15.88;7.45;;;1.50;99.90;;;;;;21043797;28;20091;-78
2023/01/29 17:07:01;;;;;;;14.23;6.70;;;1.50;99.90;;;;;;21042714;28;20115;-78
2023/01/29 17:17:05;;;;;;;14.52;7.00;;;1.40;99.90;;;;;;21026177;28;20046;-78
2023/01/29 17:27:06;;;;;;;12.80;6.47;;;1.30;99.90;;;;;;21025962;28;20411;-78
2023/01/29 17:37:15;;;;;;;13.82;6.47;;;0.90;99.90;;;;;;21017296;28;20140;-78
2023/01/29 17:47:15;;;;;;;14.90;6.85;;;0.80;99.90;;;;;;21051922;28;20032;-78
2023/01/29 17:57:16;;;;;;;13.48;6.93;;;0.40;99.90;;;;;;21064243;28;20031;-78
2023/01/29 18:07:17;;;;;;;19.02;8.13;;;0.50;99.90;;;;;;21047068;28;20055;-78
2023/01/29 18:17:21;;;;;;;14.98;7.97;;;0.30;99.90;;;;;;21043770;28;20054;-77
2023/01/29 18:27:21;;;;;;;13.48;6.93;;;0.10;99.90;;;;;;21039743;28;20071;-77
2023/01/29 18:37:22;;;;;;;19.20;8.75;;;-0.30;99.90;;;;;;21029511;28;20029;-79
2023/01/29 18:47:23;;;;;;;20.38;8.57;;;-0.70;99.90;;;;;;21025444;28;20072;-78
2023/01/29 18:57:24;;;;;;;17.40;8.88;;;-1.00;99.90;;;;;;20995095;28;20024;-78
2023/01/29 19:07:25;;;;;;;19.85;9.85;;;-1.10;99.90;;;;;;21038473;28;20502;-79
2023/01/29 19:17:26;;;;;;;26.17;11.95;;;-1.10;99.90;;;;;;21030055;28;20042;-78
2023/01/29 19:27:29;;;;;;;22.00;10.90;;;-1.10;99.90;;;;;;21071046;28;20051;-77
2023/01/29 19:37:30;;;;;;;22.30;10.45;;;-1.20;99.90;;;;;;21006273;28;20032;-76
2023/01/29 19:47:31;;;;;;;17.67;8.73;;;-1.50;99.90;;;;;;20988250;28;20036;-77
2023/01/29 19:57:33;;;;;;;19.33;9.07;;;-1.40;99.90;;;;;;20989594;28;20099;-76
2023/01/29 20:07:34;;;;;;;22.13;10.10;;;-1.40;99.90;;;;;;20973985;28;20029;-77
2023/01/29 20:17:35;;;;;;;24.75;10.93;;;-1.50;99.90;;;;;;20999787;28;20519;-79
2023/01/29 20:27:36;;;;;;;30.73;12.80;;;-1.70;99.90;;;;;;20948062;28;1183074;-77
2023/01/29 20:37:37;;;;;;;26.20;11.80;;;-1.90;99.90;;;;;;21005069;28;20037;-76
2023/01/29 20:47:38;;;;;;;27.17;10.73;;;-2.00;99.90;;;;;;21017960;28;20043;-78
2023/01/29 20:57:39;;;;;;;25.10;10.77;;;-2.40;99.90;;;;;;21065673;28;20033;-76
2023/01/29 21:07:40;;;;;;;28.42;11.40;;;-2.30;99.90;;;;;;21018991;28;20031;-79
2023/01/29 21:17:41;;;;;;;26.60;11.05;;;-2.50;99.90;;;;;;21032601;28;20031;-77
2023/01/29 21:27:41;;;;;;;21.92;10.55;;;-2.50;99.90;;;;;;21027539;28;20035;-78
2023/01/29 21:37:42;;;;;;;26.20;10.80;;;-2.60;99.90;;;;;;21022105;28;20082;-77
2023/01/29 21:47:43;;;;;;;31.80;11.57;;;-2.50;99.90;;;;;;21016060;28;20036;-77
2023/01/29 21:57:45;;;;;;;19.02;9.73;;;-2.50;99.90;;;;;;20997277;28;20032;-77
2023/01/29 22:07:48;;;;;;;23.52;10.32;;;-2.60;99.90;;;;;;21005102;28;20515;-77
2023/01/29 22:17:49;;;;;;;26.52;10.40;;;-2.90;99.90;;;;;;21004057;28;20096;-77
2023/01/29 22:27:49;;;;;;;23.45;10.88;;;-3.00;99.90;;;;;;21003437;28;20097;-77
2023/01/29 22:37:50;;;;;;;22.30;10.23;;;-2.90;99.90;;;;;;21013611;28;20028;-78
2023/01/29 22:47:51;;;;;;;21.55;10.32;;;-3.00;99.90;;;;;;21005384;28;20035;-78
2023/01/29 22:57:52;;;;;;;26.48;10.90;;;-3.10;99.90;;;;;;20996083;28;20029;-78
2023/01/29 23:07:53;;;;;;;26.13;10.35;;;-3.20;99.90;;;;;;21020973;28;20119;-77
2023/01/29 23:17:53;;;;;;;26.00;10.55;;;-3.20;99.90;;;;;;21088360;28;20024;-78
2023/01/29 23:27:54;;;;;;;26.25;11.73;;;-3.20;99.90;;;;;;21088521;28;20115;-78
2023/01/29 23:37:55;;;;;;;26.67;11.07;;;-3.30;99.90;;;;;;21086022;28;20032;-78
2023/01/29 23:47:56;;;;;;;26.08;11.43;;;-3.50;99.90;;;;;;21082249;28;20028;-77
2023/01/29 23:57:57;;;;;;;15.77;8.73;;;-3.60;99.90;;;;;;21081188;28;20051;-77
